Time;durP1;ratioP1;P1;durP2;ratioP2;P2;SDS_P1;SDS_P2;PMS_P1;PMS_P2;Temp;Humidity;BMP_temperature;BMP_pressure;BME280_temperature;BME280_humidity;BME280_pressure;Samples;Min_cycle;Max_cycle;Signal;HPM_P1;HPM_P2
2023/07/14 00:01:36;;;;;;;1.58;1.48;;;;;;;;;;4738213;30;20060;-78
2023/07/14 00:04:09;;;;;;;2.05;1.50;;;;;;;;;;4734511;30;20052;-79
2023/07/14 00:06:37;;;;;;;1.83;1.73;;;;;;;;;;4740944;30;20044;-76
2023/07/14 00:09:06;;;;;;;2.05;1.80;;;;;;;;;;4728939;30;20063;-76
2023/07/14 00:11:33;;;;;;;1.83;1.73;;;;;;;;;;4732706;30;20477;-77
2023/07/14 00:14:01;;;;;;;1.70;1.60;;;;;;;;;;4740619;30;20507;-75
2023/07/14 00:16:29;;;;;;;2.03;1.45;;;;;;;;;;4741716;30;20062;-77
2023/07/14 00:18:57;;;;;;;2.35;1.60;;;;;;;;;;4739527;30;20059;-76
2023/07/14 00:21:26;;;;;;;1.60;1.50;;;;;;;;;;4738320;30;20056;-78
2023/07/14 00:24:00;;;;;;;1.73;1.63;;;;;;;;;;4745651;30;20052;-76
2023/07/14 00:26:29;;;;;;;1.73;1.63;;;;;;;;;;4740600;30;20571;-76
2023/07/14 00:29:01;;;;;;;1.90;1.80;;;;;;;;;;4743349;30;20044;-76
2023/07/14 00:31:28;;;;;;;1.95;1.85;;;;;;;;;;4733161;30;20080;-79
2023/07/14 00:33:56;;;;;;;1.80;1.70;;;;;;;;;;4756394;30;20488;-76
2023/07/14 00:36:24;;;;;;;1.58;1.52;;;;;;;;;;4741286;30;20059;-77
2023/07/14 00:38:52;;;;;;;1.67;1.58;;;;;;;;;;4734997;30;20409;-76
2023/07/14 00:41:21;;;;;;;1.90;1.80;;;;;;;;;;4736220;30;20061;-78
2023/07/14 00:43:49;;;;;;;1.92;1.83;;;;;;;;;;4732836;30;20060;-77
2023/07/14 00:46:24;;;;;;;1.75;1.65;;;;;;;;;;4731834;30;20149;-76
2023/07/14 00:48:53;;;;;;;2.00;1.90;;;;;;;;;;4737840;30;20492;-77
2023/07/14 00:51:21;;;;;;;1.88;1.77;;;;;;;;;;4734464;30;20539;-76
2023/07/14 00:53:48;;;;;;;1.95;1.80;;;;;;;;;;4729043;30;20045;-76
2023/07/14 00:56:31;;;;;;;1.90;1.80;;;;;;;;;;4734662;30;20570;-78
2023/07/14 00:58:59;;;;;;;2.78;1.75;;;;;;;;;;4746210;30;20059;-77
2023/07/14 01:01:26;;;;;;;1.52;1.42;;;;;;;;;;4731504;30;20126;-79
2023/07/14 01:03:55;;;;;;;1.73;1.63;;;;;;;;;;4727400;30;20071;-76
2023/07/14 01:06:26;;;;;;;1.70;1.60;;;;;;;;;;4729210;30;20053;-78
2023/07/14 01:09:00;;;;;;;1.77;1.67;;;;;;;;;;4727055;30;20468;-76
2023/07/14 01:11:30;;;;;;;2.88;1.88;;;;;;;;;;4735525;30;20135;-78
2023/07/14 01:13:59;;;;;;;2.03;1.92;;;;;;;;;;4733332;30;20052;-75
2023/07/14 01:16:28;;;;;;;3.63;1.50;;;;;;;;;;4731014;30;20163;-78
2023/07/14 01:18:56;;;;;;;1.75;1.65;;;;;;;;;;4729379;30;20055;-76
2023/07/14 01:21:24;;;;;;;1.77;1.67;;;;;;;;;;4725246;30;20117;-79
2023/07/14 01:23:57;;;;;;;1.70;1.60;;;;;;;;;;4727851;30;20581;-76
2023/07/14 01:26:32;;;;;;;3.30;1.90;;;;;;;;;;4730825;30;20108;-76
2023/07/14 01:29:00;;;;;;;1.92;1.77;;;;;;;;;;4739948;30;20049;-76
2023/07/14 01:31:28;;;;;;;2.40;2.00;;;;;;;;;;4731348;30;20110;-76
2023/07/14 01:33:56;;;;;;;2.00;1.73;;;;;;;;;;4728607;30;20056;-76
2023/07/14 01:36:25;;;;;;;1.52;1.52;;;;;;;;;;4730924;30;20145;-77
2023/07/14 01:38:53;;;;;;;3.63;1.80;;;;;;;;;;4728884;30;20062;-78
2023/07/14 01:41:21;;;;;;;1.88;1.77;;;;;;;;;;4729293;30;20091;-76
2023/07/14 01:43:49;;;;;;;1.55;1.50;;;;;;;;;;4732079;30;20065;-79
2023/07/14 01:46:18;;;;;;;1.67;1.60;;;;;;;;;;4730618;30;20131;-78
2023/07/14 01:49:01;;;;;;;3.45;1.77;;;;;;;;;;4746454;30;20131;-76
2023/07/14 01:51:35;;;;;;;2.00;1.90;;;;;;;;;;4737784;30;20044;-76
2023/07/14 01:54:05;;;;;;;2.10;1.80;;;;;;;;;;4740943;30;20086;-77
2023/07/14 01:56:35;;;;;;;1.45;1.42;;;;;;;;;;4731224;30;20067;-78
2023/07/14 01:59:08;;;;;;;2.28;1.70;;;;;;;;;;4734768;30;20048;-77
2023/07/14 02:01:37;;;;;;;2.00;1.90;;;;;;;;;;4739003;30;20083;-77
2023/07/14 02:04:05;;;;;;;1.90;1.80;;;;;;;;;;4734968;30;20123;-77
2023/07/14 02:06:33;;;;;;;1.88;1.77;;;;;;;;;;4732742;30;20059;-78
2023/07/14 02:09:01;;;;;;;1.70;1.60;;;;;;;;;;4730187;30;20058;-76
2023/07/14 02:11:28;;;;;;;2.00;1.90;;;;;;;;;;4732010;30;20044;-79
2023/07/14 02:13:57;;;;;;;1.77;1.67;;;;;;;;;;4745232;30;20055;-75
2023/07/14 02:16:26;;;;;;;2.22;2.03;;;;;;;;;;4732586;30;20048;-75
2023/07/14 02:18:53;;;;;;;1.65;1.55;;;;;;;;;;4732699;30;20053;-76
2023/07/14 02:21:27;;;;;;;2.67;1.70;;;;;;;;;;4742585;30;20052;-75
2023/07/14 02:23:55;;;;;;;1.80;1.70;;;;;;;;;;4744484;30;20040;-76
2023/07/14 02:26:32;;;;;;;4.00;1.60;;;;;;;;;;4726760;30;20501;-76
2023/07/14 02:29:00;;;;;;;1.95;1.85;;;;;;;;;;4743853;30;21394;-76
2023/07/14 02:31:34;;;;;;;2.05;1.77;;;;;;;;;;4740870;30;20508;-76
2023/07/14 02:34:02;;;;;;;2.30;2.10;;;;;;;;;;4740827;30;20048;-76
2023/07/14 02:36:29;;;;;;;2.00;1.90;;;;;;;;;;4740126;30;20463;-75
2023/07/14 02:38:57;;;;;;;1.60;1.50;;;;;;;;;;4744323;30;20052;-79
2023/07/14 02:41:27;;;;;;;1.85;1.83;;;;;;;;;;4743610;30;20066;-76
2023/07/14 02:43:57;;;;;;;2.00;1.90;;;;;;;;;;4741805;30;20062;-78
2023/07/14 02:46:31;;;;;;;4.30;2.00;;;;;;;;;;4731975;30;20053;-77
2023/07/14 02:48:58;;;;;;;3.53;1.73;;;;;;;;;;4741449;30;20060;-76
2023/07/14 02:51:26;;;;;;;3.25;2.00;;;;;;;;;;4740605;30;20109;-76
2023/07/14 02:53:53;;;;;;;2.45;2.10;;;;;;;;;;4737678;30;20071;-79
2023/07/14 02:56:21;;;;;;;2.13;1.98;;;;;;;;;;4741948;30;20139;-76
2023/07/14 02:58:49;;;;;;;2.85;2.28;;;;;;;;;;4738131;30;20058;-77
2023/07/14 03:01:18;;;;;;;2.17;2.08;;;;;;;;;;4737754;30;20131;-76
2023/07/14 03:03:47;;;;;;;2.10;2.00;;;;;;;;;;4757043;30;20114;-75
2023/07/14 03:06:16;;;;;;;4.00;2.17;;;;;;;;;;4734772;30;20072;-79
2023/07/14 03:08:44;;;;;;;2.22;2.00;;;;;;;;;;4746449;30;20052;-76
2023/07/14 03:11:11;;;;;;;1.98;1.77;;;;;;;;;;4737281;30;20087;-77
2023/07/14 03:13:39;;;;;;;2.08;1.80;;;;;;;;;;4740729;30;20048;-78
2023/07/14 03:16:07;;;;;;;1.98;1.77;;;;;;;;;;4739029;30;20060;-76
2023/07/14 03:18:35;;;;;;;2.75;2.33;;;;;;;;;;4745150;30;20131;-77
2023/07/14 03:21:03;;;;;;;2.67;2.35;;;;;;;;;;4740006;30;20060;-76
2023/07/14 03:23:31;;;;;;;3.95;1.90;;;;;;;;;;4737324;30;20118;-76
2023/07/14 03:26:03;;;;;;;2.17;1.98;;;;;;;;;;4738873;30;20056;-78
2023/07/14 03:28:31;;;;;;;2.00;1.90;;;;;;;;;;4747118;30;20056;-76
2023/07/14 03:30:58;;;;;;;2.00;1.90;;;;;;;;;;4737237;30;20538;-80
2023/07/14 03:33:25;;;;;;;2.22;2.13;;;;;;;;;;4738923;30;20063;-77
2023/07/14 03:36:00;;;;;;;3.42;2.10;;;;;;;;;;4733377;30;20106;-78
2023/07/14 03:38:27;;;;;;;2.70;1.90;;;;;;;;;;4744848;30;20051;-79
2023/07/14 03:40:55;;;;;;;2.15;2.05;;;;;;;;;;4741369;30;20133;-79
2023/07/14 03:43:22;;;;;;;2.42;2.22;;;;;;;;;;4742279;30;20067;-77
2023/07/14 03:45:50;;;;;;;2.75;2.00;;;;;;;;;;4743363;30;20326;-79
2023/07/14 03:48:17;;;;;;;2.10;2.00;;;;;;;;;;4739642;30;20478;-80
2023/07/14 03:50:45;;;;;;;2.40;2.20;;;;;;;;;;4741499;30;20063;-77
2023/07/14 03:53:13;;;;;;;2.50;2.30;;;;;;;;;;4739536;30;20063;-77
2023/07/14 03:55:40;;;;;;;2.30;2.20;;;;;;;;;;4732406;30;20067;-77
2023/07/14 03:58:08;;;;;;;2.30;2.10;;;;;;;;;;4731722;30;20109;-77
2023/07/14 04:00:35;;;;;;;2.05;1.92;;;;;;;;;;4745568;30;20142;-77
2023/07/14 04:03:03;;;;;;;2.42;2.22;;;;;;;;;;4733367;30;20052;-80
2023/07/14 04:05:30;;;;;;;2.60;2.40;;;;;;;;;;4759041;24;20638;-84
2023/07/14 04:07:58;;;;;;;2.55;2.20;;;;;;;;;;4745448;30;20052;-84
2023/07/14 04:10:25;;;;;;;2.20;2.10;;;;;;;;;;4742883;30;20245;-84
2023/07/14 04:12:53;;;;;;;2.83;2.38;;;;;;;;;;4729261;30;20068;-84
2023/07/14 04:15:21;;;;;;;2.40;2.20;;;;;;;;;;4729460;30;20111;-84
2023/07/14 04:17:49;;;;;;;2.05;1.95;;;;;;;;;;4729116;30;20110;-84
2023/07/14 04:20:17;;;;;;;2.92;2.38;;;;;;;;;;4725928;30;20049;-83
2023/07/14 04:22:44;;;;;;;2.45;2.35;;;;;;;;;;4728408;30;20052;-84
2023/07/14 04:25:12;;;;;;;2.50;2.10;;;;;;;;;;4727506;30;20083;-84
2023/07/14 04:27:39;;;;;;;2.80;2.60;;;;;;;;;;4727396;30;20052;-83
2023/07/14 04:30:08;;;;;;;4.13;2.45;;;;;;;;;;4726470;30;20515;-84
2023/07/14 04:32:36;;;;;;;2.63;2.47;;;;;;;;;;4725944;30;20063;-84
2023/07/14 04:35:04;;;;;;;2.63;2.42;;;;;;;;;;4728216;30;20062;-85
2023/07/14 04:37:32;;;;;;;2.83;2.35;;;;;;;;;;4724482;30;20555;-84
2023/07/14 04:39:59;;;;;;;2.40;2.20;;;;;;;;;;4725597;30;20044;-84
2023/07/14 04:42:27;;;;;;;2.58;2.38;;;;;;;;;;4727474;30;20099;-84
2023/07/14 04:44:55;;;;;;;2.10;2.00;;;;;;;;;;4727494;30;20064;-84
2023/07/14 04:47:22;;;;;;;2.20;2.10;;;;;;;;;;4740743;30;20065;-85
2023/07/14 04:49:50;;;;;;;3.75;2.05;;;;;;;;;;4730786;30;20519;-84
2023/07/14 04:52:18;;;;;;;2.25;2.05;;;;;;;;;;4722902;30;20061;-84
2023/07/14 04:54:48;;;;;;;2.17;2.03;;;;;;;;;;4728643;30;20045;-83
2023/07/14 04:57:16;;;;;;;2.42;2.22;;;;;;;;;;4724261;30;20106;-83
2023/07/14 04:59:43;;;;;;;4.40;2.20;;;;;;;;;;4727815;30;20146;-83
2023/07/14 05:02:11;;;;;;;4.05;2.30;;;;;;;;;;4729050;30;20153;-85
2023/07/14 05:04:41;;;;;;;2.45;2.35;;;;;;;;;;4727577;30;20068;-84
2023/07/14 05:07:27;;;;;;;2.30;2.20;;;;;;;;;;4724996;30;20056;-84
2023/07/14 05:09:54;;;;;;;2.15;2.05;;;;;;;;;;4727465;30;20080;-84
2023/07/14 05:12:22;;;;;;;2.25;2.15;;;;;;;;;;4728771;30;20064;-84
2023/07/14 05:14:49;;;;;;;2.00;1.90;;;;;;;;;;4729426;30;20044;-84
2023/07/14 05:17:17;;;;;;;2.45;2.10;;;;;;;;;;4726906;30;20059;-84
2023/07/14 05:19:44;;;;;;;1.90;1.80;;;;;;;;;;4729036;30;20682;-83
2023/07/14 05:22:11;;;;;;;2.33;1.90;;;;;;;;;;4728771;30;20076;-84
2023/07/14 05:24:39;;;;;;;2.55;2.30;;;;;;;;;;4727924;30;20056;-84
2023/07/14 05:27:06;;;;;;;1.95;1.85;;;;;;;;;;4726636;30;20083;-83
2023/07/14 05:29:34;;;;;;;2.00;1.90;;;;;;;;;;4724649;30;20479;-84
2023/07/14 05:32:01;;;;;;;2.33;2.22;;;;;;;;;;4723988;30;20111;-84
2023/07/14 05:34:29;;;;;;;2.70;1.85;;;;;;;;;;4723530;30;20044;-84
2023/07/14 05:36:58;;;;;;;2.50;1.77;;;;;;;;;;4724352;30;20465;-84
2023/07/14 05:39:28;;;;;;;1.90;1.80;;;;;;;;;;4728396;30;20134;-83
2023/07/14 05:41:59;;;;;;;2.30;2.00;;;;;;;;;;4729357;30;20516;-83
2023/07/14 05:44:26;;;;;;;2.33;2.13;;;;;;;;;;4729276;30;20056;-82
2023/07/14 05:46:54;;;;;;;2.00;1.90;;;;;;;;;;4731758;30;20133;-83
2023/07/14 05:49:22;;;;;;;1.80;1.67;;;;;;;;;;4733142;30;20048;-83
2023/07/14 05:51:51;;;;;;;1.58;1.48;;;;;;;;;;4732798;30;20048;-83
2023/07/14 05:54:18;;;;;;;1.90;1.80;;;;;;;;;;4726307;30;20124;-83
2023/07/14 05:56:46;;;;;;;2.15;1.65;;;;;;;;;;4717747;30;20158;-83
2023/07/14 05:59:14;;;;;;;1.95;1.80;;;;;;;;;;4727383;30;20053;-83
2023/07/14 06:01:42;;;;;;;2.88;2.45;;;;;;;;;;4722853;30;20738;-83
2023/07/14 06:04:10;;;;;;;2.28;1.85;;;;;;;;;;4723220;30;20631;-83
2023/07/14 06:06:37;;;;;;;1.63;1.52;;;;;;;;;;4725122;30;20083;-83
2023/07/14 06:09:05;;;;;;;3.60;2.08;;;;;;;;;;4726711;30;20048;-83
2023/07/14 06:11:32;;;;;;;1.95;1.85;;;;;;;;;;4732083;30;20048;-83
2023/07/14 06:14:00;;;;;;;2.10;2.00;;;;;;;;;;4731934;30;20079;-83
2023/07/14 06:16:27;;;;;;;2.10;2.00;;;;;;;;;;4731365;30;20075;-83
2023/07/14 06:18:55;;;;;;;2.45;1.80;;;;;;;;;;4724616;30;20132;-83
2023/07/14 06:21:22;;;;;;;2.53;2.33;;;;;;;;;;4726456;30;20124;-83
2023/07/14 06:23:50;;;;;;;2.40;2.30;;;;;;;;;;4727873;30;20073;-83
2023/07/14 06:26:17;;;;;;;2.92;2.25;;;;;;;;;;4726486;30;20126;-84
2023/07/14 06:28:45;;;;;;;3.35;2.20;;;;;;;;;;4727838;30;20045;-83
2023/07/14 06:31:13;;;;;;;2.95;2.20;;;;;;;;;;4729173;30;20126;-81
2023/07/14 06:33:41;;;;;;;2.20;2.10;;;;;;;;;;4726805;30;20139;-81
2023/07/14 06:36:08;;;;;;;7.30;2.35;;;;;;;;;;4727410;30;20147;-81
2023/07/14 06:38:36;;;;;;;2.05;1.95;;;;;;;;;;4732115;30;20088;-81
2023/07/14 06:41:07;;;;;;;2.10;2.00;;;;;;;;;;4741690;30;20068;-81
2023/07/14 06:43:34;;;;;;;2.20;2.00;;;;;;;;;;4752109;30;20063;-82
2023/07/14 06:46:01;;;;;;;2.35;2.20;;;;;;;;;;4728521;30;20052;-82
2023/07/14 06:48:29;;;;;;;1.85;1.75;;;;;;;;;;4725858;30;20077;-82
2023/07/14 06:50:56;;;;;;;2.15;2.05;;;;;;;;;;4723193;30;20083;-81
2023/07/14 06:53:24;;;;;;;2.10;2.00;;;;;;;;;;4727653;30;20084;-82
2023/07/14 06:55:52;;;;;;;2.90;2.10;;;;;;;;;;4728649;30;20045;-81
2023/07/14 06:58:21;;;;;;;2.65;2.15;;;;;;;;;;4725749;30;20089;-81
2023/07/14 07:00:48;;;;;;;2.92;2.00;;;;;;;;;;4727757;30;20127;-82
2023/07/14 07:03:16;;;;;;;2.30;2.10;;;;;;;;;;4730077;30;20851;-82
2023/07/14 07:05:44;;;;;;;2.58;1.92;;;;;;;;;;4728198;30;20293;-81
2023/07/14 07:08:12;;;;;;;1.70;1.60;;;;;;;;;;4729037;30;20484;-82
2023/07/14 07:10:41;;;;;;;1.85;1.75;;;;;;;;;;4728591;30;20052;-82
2023/07/14 07:13:09;;;;;;;1.77;1.67;;;;;;;;;;4729102;30;20077;-82
2023/07/14 07:15:36;;;;;;;2.10;2.00;;;;;;;;;;4726145;30;20136;-81
2023/07/14 07:18:03;;;;;;;3.08;2.03;;;;;;;;;;4725661;30;20115;-82
2023/07/14 07:20:31;;;;;;;3.50;2.08;;;;;;;;;;4728993;30;20079;-81
2023/07/14 07:22:58;;;;;;;1.83;1.70;;;;;;;;;;4728127;30;20065;-81
2023/07/14 07:25:26;;;;;;;1.90;1.80;;;;;;;;;;4726660;30;20049;-81
2023/07/14 07:27:53;;;;;;;1.98;1.88;;;;;;;;;;4728815;30;20057;-82
2023/07/14 07:30:21;;;;;;;1.80;1.70;;;;;;;;;;4724996;30;20049;-81
2023/07/14 07:32:49;;;;;;;3.72;1.98;;;;;;;;;;4728688;30;20109;-82
2023/07/14 07:35:17;;;;;;;1.80;1.70;;;;;;;;;;4729252;30;20051;-83
2023/07/14 07:37:44;;;;;;;1.80;1.70;;;;;;;;;;4726894;30;20108;-82
2023/07/14 07:40:12;;;;;;;1.98;1.33;;;;;;;;;;4731968;30;20078;-82
2023/07/14 07:42:40;;;;;;;3.92;1.58;;;;;;;;;;4732018;30;20346;-82
2023/07/14 07:45:08;;;;;;;1.90;1.30;;;;;;;;;;4731093;30;20064;-81
2023/07/14 07:47:36;;;;;;;1.38;1.27;;;;;;;;;;4727107;30;20069;-81
2023/07/14 07:50:04;;;;;;;1.35;1.27;;;;;;;;;;4732549;30;20048;-82
2023/07/14 07:52:33;;;;;;;4.32;1.42;;;;;;;;;;4731411;30;20144;-82
2023/07/14 07:55:00;;;;;;;1.50;1.40;;;;;;;;;;4730569;30;20068;-83
2023/07/14 07:57:28;;;;;;;1.52;1.42;;;;;;;;;;4727692;30;20148;-83
2023/07/14 07:59:56;;;;;;;1.48;1.38;;;;;;;;;;4730346;30;20135;-83
2023/07/14 08:02:23;;;;;;;3.63;1.75;;;;;;;;;;4727821;30;21624;-83
2023/07/14 08:04:51;;;;;;;1.50;1.40;;;;;;;;;;4724554;30;20056;-82
2023/07/14 08:07:18;;;;;;;1.45;1.40;;;;;;;;;;4728759;30;20060;-82
2023/07/14 08:09:46;;;;;;;1.50;1.40;;;;;;;;;;4727310;30;20163;-82
2023/07/14 08:12:13;;;;;;;2.63;1.50;;;;;;;;;;4739938;30;20116;-81
2023/07/14 08:14:54;;;;;;;5.85;1.48;;;;;;;;;;4740808;30;20101;-81
2023/07/14 08:17:25;;;;;;;1.77;1.67;;;;;;;;;;4728796;30;20052;-84
2023/07/14 08:19:53;;;;;;;1.58;1.50;;;;;;;;;;4728652;30;20072;-81
2023/07/14 08:22:21;;;;;;;1.70;1.60;;;;;;;;;;4726509;30;20164;-81
2023/07/14 08:24:49;;;;;;;1.45;1.40;;;;;;;;;;4728275;30;20135;-82
2023/07/14 08:27:16;;;;;;;1.40;1.30;;;;;;;;;;4727452;30;20083;-81
2023/07/14 08:29:44;;;;;;;1.70;1.58;;;;;;;;;;4729864;30;20087;-82
2023/07/14 08:32:11;;;;;;;1.95;1.60;;;;;;;;;;4732629;30;20060;-82
2023/07/14 08:34:39;;;;;;;1.67;1.58;;;;;;;;;;4729997;30;20516;-81
2023/07/14 08:37:07;;;;;;;2.05;1.55;;;;;;;;;;4732276;30;20056;-82
2023/07/14 08:39:35;;;;;;;2.92;1.75;;;;;;;;;;4731232;30;20519;-82
2023/07/14 08:42:07;;;;;;;2.67;1.95;;;;;;;;;;4731721;30;20061;-82
2023/07/14 08:44:47;;;;;;;1.50;1.40;;;;;;;;;;4730834;30;20044;-82
2023/07/14 08:47:21;;;;;;;1.30;1.20;;;;;;;;;;4725513;30;20079;-82
2023/07/14 08:50:16;;;;;;;1.48;1.38;;;;;;;;;;4728307;30;20069;-82
2023/07/14 08:52:45;;;;;;;1.70;1.40;;;;;;;;;;4729285;30;20106;-82
2023/07/14 08:55:15;;;;;;;2.25;1.60;;;;;;;;;;4729075;30;20052;-82
2023/07/14 08:57:44;;;;;;;1.65;1.55;;;;;;;;;;4723039;30;20107;-81
2023/07/14 09:00:17;;;;;;;1.42;1.23;;;;;;;;;;4728680;30;20127;-82
2023/07/14 09:03:04;;;;;;;2.42;1.30;;;;;;;;;;4729968;30;20084;-83
2023/07/14 09:05:33;;;;;;;1.58;1.30;;;;;;;;;;4726228;30;20056;-84
2023/07/14 09:08:01;;;;;;;1.60;1.50;;;;;;;;;;4731742;30;20060;-86
2023/07/14 09:10:41;;;;;;;1.23;1.23;;;;;;;;;;4724505;30;20414;-83
2023/07/14 09:13:28;;;;;;;1.30;1.20;;;;;;;;;;4729309;30;20110;-83
2023/07/14 09:15:57;;;;;;;1.35;1.27;;;;;;;;;;4731376;30;20114;-84
2023/07/14 09:18:27;;;;;;;1.00;1.00;;;;;;;;;;4726610;30;20057;-85
2023/07/14 09:21:06;;;;;;;4.68;4.32;;;;;;;;;;4732373;30;20575;-83
2023/07/14 09:23:48;;;;;;;1.67;1.58;;;;;;;;;;4731009;30;20528;-83
2023/07/14 09:26:30;;;;;;;1.25;1.20;;;;;;;;;;4730603;30;20661;-83
2023/07/14 09:28:59;;;;;;;1.55;1.45;;;;;;;;;;4730484;30;20057;-83
2023/07/14 09:31:37;;;;;;;1.48;1.23;;;;;;;;;;4739774;30;20052;-83
2023/07/14 09:34:23;;;;;;;1.52;1.25;;;;;;;;;;4731437;30;20072;-86
2023/07/14 09:36:52;;;;;;;1.88;1.30;;;;;;;;;;4731951;30;20057;-84
2023/07/14 09:39:33;;;;;;;1.50;1.40;;;;;;;;;;4730648;30;20056;-85
2023/07/14 09:42:01;;;;;;;1.70;1.43;;;;;;;;;;4731237;30;20052;-83
2023/07/14 09:44:29;;;;;;;2.83;2.65;;;;;;;;;;4726864;30;20295;-83
2023/07/14 09:46:56;;;;;;;1.42;1.38;;;;;;;;;;4730113;30;20188;-84
2023/07/14 09:49:39;;;;;;;1.00;1.00;;;;;;;;;;4722101;30;20115;-83
2023/07/14 09:52:15;;;;;;;1.85;1.20;;;;;;;;;;4730386;30;20059;-85
2023/07/14 09:54:49;;;;;;;1.30;1.20;;;;;;;;;;4730270;30;20508;-84
2023/07/14 09:57:18;;;;;;;1.33;1.30;;;;;;;;;;4730017;30;20134;-84
2023/07/14 10:00:13;;;;;;;1.02;0.98;;;;;;;;;;4725330;30;20052;-84
2023/07/14 10:02:41;;;;;;;1.77;1.20;;;;;;;;;;4731218;30;20056;-83
2023/07/14 10:05:25;;;;;;;1.40;1.13;;;;;;;;;;4727423;30;20063;-83
2023/07/14 10:07:53;;;;;;;1.42;0.90;;;;;;;;;;4728541;30;20049;-83
2023/07/14 10:10:25;;;;;;;0.98;0.98;;;;;;;;;;4729888;30;20048;-82
2023/07/14 10:12:53;;;;;;;0.75;0.75;;;;;;;;;;4730439;30;20072;-83
2023/07/14 10:15:31;;;;;;;1.95;0.88;;;;;;;;;;4730257;30;20132;-83
2023/07/14 10:17:59;;;;;;;1.73;0.90;;;;;;;;;;4729352;30;20478;-84
2023/07/14 10:20:28;;;;;;;0.93;0.90;;;;;;;;;;4730471;30;20056;-85
2023/07/14 10:22:57;;;;;;;0.95;0.95;;;;;;;;;;4730712;30;20064;-84
2023/07/14 10:25:26;;;;;;;0.98;0.90;;;;;;;;;;4733056;30;20069;-87
2023/07/14 10:28:14;;;;;;;0.85;0.80;;;;;;;;;;4728943;30;20080;-87
2023/07/14 10:30:53;;;;;;;1.10;1.00;;;;;;;;;;4726820;30;20059;-86
2023/07/14 10:33:23;;;;;;;0.70;0.70;;;;;;;;;;4730452;30;20065;-84
2023/07/14 10:36:07;;;;;;;0.98;0.98;;;;;;;;;;4730455;30;20080;-84
2023/07/14 10:38:39;;;;;;;0.88;0.88;;;;;;;;;;4728063;30;20118;-87
2023/07/14 10:41:09;;;;;;;0.90;0.90;;;;;;;;;;4733021;30;20139;-84
2023/07/14 10:43:55;;;;;;;0.98;0.90;;;;;;;;;;4730684;30;20060;-86
2023/07/14 10:46:27;;;;;;;1.20;1.10;;;;;;;;;;4724468;30;20134;-86
2023/07/14 10:48:57;;;;;;;0.98;0.90;;;;;;;;;;4726795;30;20056;-83
2023/07/14 10:51:43;;;;;;;0.98;0.98;;;;;;;;;;4732139;30;20085;-85
2023/07/14 10:54:13;;;;;;;0.95;0.95;;;;;;;;;;4726429;30;20059;-84
2023/07/14 10:57:03;;;;;;;1.73;0.98;;;;;;;;;;4723984;30;20054;-84
2023/07/14 10:59:34;;;;;;;0.80;0.80;;;;;;;;;;4730282;30;20056;-85
2023/07/14 11:02:11;;;;;;;0.90;0.80;;;;;;;;;;4731462;30;20342;-83
2023/07/14 11:04:41;;;;;;;0.75;0.75;;;;;;;;;;4732698;30;20070;-83
2023/07/14 11:07:14;;;;;;;0.95;0.95;;;;;;;;;;4731224;30;20143;-86
2023/07/14 11:09:42;;;;;;;6.95;1.45;;;;;;;;;;4731227;30;20534;-86
2023/07/14 11:12:22;;;;;;;2.00;0.93;;;;;;;;;;4732466;30;20076;-84
2023/07/14 11:15:02;;;;;;;1.38;0.98;;;;;;;;;;4733147;30;20120;-86
2023/07/14 11:17:38;;;;;;;1.05;0.90;;;;;;;;;;4732411;30;20062;-83
2023/07/14 11:20:08;;;;;;;1.17;0.90;;;;;;;;;;4732931;30;20094;-85
2023/07/14 11:22:36;;;;;;;2.23;1.00;;;;;;;;;;4729257;30;20087;-85
2023/07/14 11:25:18;;;;;;;0.85;0.85;;;;;;;;;;4727758;30;20517;-84
2023/07/14 11:27:50;;;;;;;1.58;0.90;;;;;;;;;;4742577;30;20127;-83
2023/07/14 11:30:20;;;;;;;2.25;0.75;;;;;;;;;;4727670;30;20057;-84
2023/07/14 11:32:51;;;;;;;0.80;0.80;;;;;;;;;;4733081;30;20136;-87
2023/07/14 11:35:30;;;;;;;0.80;0.80;;;;;;;;;;4732670;30;20132;-86
2023/07/14 11:38:01;;;;;;;1.25;0.90;;;;;;;;;;4742866;30;20060;-87
2023/07/14 11:40:32;;;;;;;2.37;0.80;;;;;;;;;;4732596;30;20045;-84
2023/07/14 11:43:00;;;;;;;0.75;0.75;;;;;;;;;;4732335;30;20303;-83
2023/07/14 11:45:29;;;;;;;1.38;0.90;;;;;;;;;;4726044;30;20041;-86
2023/07/14 11:47:58;;;;;;;3.45;0.90;;;;;;;;;;4731574;30;20172;-86
2023/07/14 11:50:27;;;;;;;4.00;0.75;;;;;;;;;;4731616;30;20069;-86
2023/07/14 11:53:11;;;;;;;2.25;0.82;;;;;;;;;;4726901;30;20052;-87
2023/07/14 11:55:43;;;;;;;0.60;0.60;;;;;;;;;;4727310;30;20095;-86
2023/07/14 11:58:19;;;;;;;0.82;0.80;;;;;;;;;;4726537;30;20133;-86
2023/07/14 12:01:07;;;;;;;0.77;0.70;;;;;;;;;;4732087;30;20148;-88
2023/07/14 12:03:36;;;;;;;0.75;0.70;;;;;;;;;;4725567;30;20245;-87
2023/07/14 12:06:19;;;;;;;0.75;0.70;;;;;;;;;;4731061;30;20078;-83
2023/07/14 12:09:04;;;;;;;0.70;0.70;;;;;;;;;;4716941;30;20048;-87
2023/07/14 12:11:41;;;;;;;0.98;0.73;;;;;;;;;;4731225;30;20084;-87
2023/07/14 12:14:29;;;;;;;1.13;0.93;;;;;;;;;;4731394;30;20478;-85
2023/07/14 12:16:58;;;;;;;2.25;0.70;;;;;;;;;;4731199;30;20126;-85
2023/07/14 12:19:33;;;;;;;0.95;0.95;;;;;;;;;;4731190;30;20360;-85
2023/07/14 12:22:04;;;;;;;1.63;0.80;;;;;;;;;;4731609;30;20052;-84
2023/07/14 12:24:34;;;;;;;0.75;0.75;;;;;;;;;;4731338;30;20063;-84
2023/07/14 12:27:14;;;;;;;0.80;0.80;;;;;;;;;;4731372;30;20052;-85
2023/07/14 12:29:41;;;;;;;9.80;1.40;;;;;;;;;;4728073;30;20135;-86
2023/07/14 12:32:24;;;;;;;0.73;0.73;;;;;;;;;;4731065;30;20380;-85
2023/07/14 12:34:51;;;;;;;2.10;1.08;;;;;;;;;;4731181;30;20052;-83
2023/07/14 12:37:21;;;;;;;0.95;0.80;;;;;;;;;;4730998;30;20079;-82
2023/07/14 12:39:51;;;;;;;1.23;0.93;;;;;;;;;;4731578;30;20060;-87
2023/07/14 12:42:19;;;;;;;1.13;0.90;;;;;;;;;;4731241;30;20061;-84
2023/07/14 12:44:46;;;;;;;2.53;1.10;;;;;;;;;;4725938;30;20546;-86
2023/07/14 12:47:15;;;;;;;1.88;1.00;;;;;;;;;;4727456;30;20044;-84
2023/07/14 12:49:53;;;;;;;1.02;0.93;;;;;;;;;;4730096;30;20057;-85
2023/07/14 12:52:28;;;;;;;0.77;0.77;;;;;;;;;;4725008;30;20550;-84
2023/07/14 12:55:03;;;;;;;0.70;0.70;;;;;;;;;;4726901;30;20142;-88
2023/07/14 12:57:32;;;;;;;1.67;0.73;;;;;;;;;;4731049;30;20440;-85
2023/07/14 13:00:16;;;;;;;0.70;0.70;;;;;;;;;;4730334;30;20056;-84
2023/07/14 13:02:44;;;;;;;0.70;0.70;;;;;;;;;;4730291;30;20094;-84
2023/07/14 13:05:12;;;;;;;0.73;0.73;;;;;;;;;;4784398;24;20159;-77
2023/07/14 13:07:45;;;;;;;0.70;0.70;;;;;;;;;;4745528;30;20323;-77
2023/07/14 13:10:18;;;;;;;1.35;0.80;;;;;;;;;;4743172;30;20326;-77
2023/07/14 13:12:46;;;;;;;1.33;1.30;;;;;;;;;;4744646;30;20060;-77
2023/07/14 13:15:16;;;;;;;2.70;0.75;;;;;;;;;;4731321;30;20079;-77
2023/07/14 13:17:44;;;;;;;1.00;0.70;;;;;;;;;;4735302;30;20032;-76
2023/07/14 13:20:17;;;;;;;1.05;0.80;;;;;;;;;;4728368;30;20577;-78
2023/07/14 13:22:45;;;;;;;2.00;0.80;;;;;;;;;;4727698;30;20079;-77
2023/07/14 13:25:18;;;;;;;0.80;0.80;;;;;;;;;;4718314;30;20060;-77
2023/07/14 13:27:46;;;;;;;0.73;0.70;;;;;;;;;;4729904;30;20057;-77
2023/07/14 13:30:22;;;;;;;1.17;0.80;;;;;;;;;;4732265;30;20061;-78
2023/07/14 13:32:52;;;;;;;1.17;1.10;;;;;;;;;;4718277;30;20056;-77
2023/07/14 13:35:26;;;;;;;1.75;0.80;;;;;;;;;;4726060;30;20052;-77
2023/07/14 13:37:58;;;;;;;0.68;0.68;;;;;;;;;;4728097;30;20057;-77
2023/07/14 13:40:29;;;;;;;1.02;0.80;;;;;;;;;;4729255;30;20589;-77
2023/07/14 13:43:01;;;;;;;1.08;0.68;;;;;;;;;;4729462;30;20064;-77
2023/07/14 13:45:42;;;;;;;1.15;0.60;;;;;;;;;;4731271;30;20057;-78
2023/07/14 13:48:24;;;;;;;0.77;0.77;;;;;;;;;;4724125;30;20070;-77
2023/07/14 13:50:51;;;;;;;0.80;0.80;;;;;;;;;;4724422;30;20092;-76
2023/07/14 13:53:19;;;;;;;1.30;1.15;;;;;;;;;;4720120;30;20070;-77
2023/07/14 13:55:47;;;;;;;0.70;0.70;;;;;;;;;;4727381;30;20092;-78
2023/07/14 13:58:14;;;;;;;1.20;0.88;;;;;;;;;;4731248;30;20138;-76
2023/07/14 14:00:44;;;;;;;1.20;0.90;;;;;;;;;;4729849;30;20060;-77
2023/07/14 14:03:12;;;;;;;0.80;0.80;;;;;;;;;;4730963;30;20479;-77
2023/07/14 14:05:42;;;;;;;0.80;0.80;;;;;;;;;;4729496;30;20060;-77
2023/07/14 14:08:11;;;;;;;2.20;0.77;;;;;;;;;;4730700;30;20060;-77
2023/07/14 14:10:38;;;;;;;2.45;0.80;;;;;;;;;;4732193;30;20057;-77
2023/07/14 14:13:06;;;;;;;0.60;0.60;;;;;;;;;;4730482;30;20045;-77
2023/07/14 14:15:35;;;;;;;0.65;0.65;;;;;;;;;;4735066;30;20056;-77
2023/07/14 14:18:06;;;;;;;0.50;0.45;;;;;;;;;;4727196;30;20421;-77
2023/07/14 14:20:34;;;;;;;2.15;0.70;;;;;;;;;;4731455;30;20056;-77
2023/07/14 14:23:05;;;;;;;2.40;0.70;;;;;;;;;;4730119;30;20057;-77
2023/07/14 14:25:36;;;;;;;0.95;0.70;;;;;;;;;;4730743;30;20431;-77
2023/07/14 14:28:04;;;;;;;0.90;0.80;;;;;;;;;;4731395;30;20131;-77
2023/07/14 14:30:42;;;;;;;0.77;0.77;;;;;;;;;;4730428;30;20044;-77
2023/07/14 14:33:13;;;;;;;0.77;0.70;;;;;;;;;;4733129;30;20545;-77
2023/07/14 14:35:42;;;;;;;0.77;0.77;;;;;;;;;;4731213;30;20132;-77
2023/07/14 14:38:14;;;;;;;0.60;0.60;;;;;;;;;;4733407;30;20053;-77
2023/07/14 14:41:04;;;;;;;1.05;0.75;;;;;;;;;;4731678;30;20052;-76
2023/07/14 14:43:32;;;;;;;1.05;0.70;;;;;;;;;;4732348;30;20143;-77
2023/07/14 14:46:00;;;;;;;1.33;0.82;;;;;;;;;;4732704;30;20048;-76
2023/07/14 14:48:29;;;;;;;0.70;0.70;;;;;;;;;;4716253;30;20056;-77
2023/07/14 14:51:11;;;;;;;0.95;0.88;;;;;;;;;;4728021;30;20069;-77
2023/07/14 14:53:39;;;;;;;0.70;0.70;;;;;;;;;;4728300;30;20148;-77
2023/07/14 14:56:26;;;;;;;0.85;0.80;;;;;;;;;;4732825;30;20099;-78
2023/07/14 14:58:55;;;;;;;0.60;0.60;;;;;;;;;;4734051;30;20338;-78
2023/07/14 15:01:38;;;;;;;0.80;0.80;;;;;;;;;;4721215;30;20542;-76
2023/07/14 15:04:07;;;;;;;2.88;0.68;;;;;;;;;;4721775;30;20045;-77